Goshen, AR (72735)

4:30 AM CDT on March 28, 2015 (GMT -0500)
Shady Cove | | Change Station
CLOSE
Current Station
Personal Weather Station
Location: Springdale, AR
Elevation: 1207 ft
Nearby Weather Stations

Elev 1207 ft 36.20 °N, 94.02 °W | Updated 48 seconds ago

Partly Cloudy
Partly Cloudy
38.3 °F
Feels Like 38 °F
N
0.0
Wind Variable Wind from ESE

Today
High -- | Low -- °F
--% Chance of Precip.
Yesterday
High -- | Low -- °F
Precip. -- in
7:08 AM 7:34 PM
First Quarter, 61% visible
Pressure 30.11 in
Visibility 10.0 miles
Clouds Few 8500 ft
Windchill 38 °F
Dew Point 29 °F
Humidity 69%
Rainfall 0.00 in
Snow Depth Not available.
UV 0 out of 12
Pollen 9.70 out of 12
Air Quality Not available.
Flu Activity Not available.
METAR KFYV 280853Z AUTO 00000KT 10SM FEW085 04/02 A3010 RMK AO2 SLP194 T00390017 58012

More Conditions Fewer Conditions

Pressure 30.11 in
Visibility 10.0 miles
Clouds Few 8500 ft
Windchill 38 °F
Dew Point 29 °F
Humidity 69%
Rainfall 0.00 in
Snow Depth Not available.
UV 0 out of 12
Pollen 9.70 out of 12
Air Quality Not available.
Flu Activity Not available.
METAR KFYV 280853Z AUTO 00000KT 10SM FEW085 04/02 A3010 RMK AO2 SLP194 T00390017 58012

More Conditions Fewer Conditions

Nowcast | as of 3:28 am CDT on March 28, 2015

At 3:28 am...Doppler radars indicated isolated very light showers across portions of northeast Oklahoma. This activity continues to quickly move to the southeast at around 40 mph. Through 6 am...passing light showers or occasional sprinkles will be possible across northeast Oklahoma and into far northwest Arkansas. Trace amounts to perhaps a couple hundredths of an inch of rainfall may occur.

×

10-Day Weather Forecast

Almanac

Astronomy

Mar. 28, 2015 Rise Set
Actual Time
Civil Twilight
Nautical Twilight
Astronomical Twilight
Moon
Length of Visible Light
Length of Day
Tomorrow will be .
, % of the Moon is Illuminated

Today's Extremes

State Highs State Lows

Community

WunderPhotos

Upload Photos

1,808,939 photos uploaded!

WunderBlogs® & News

Nearby

Air Quality

  Air Quality AQ Index Pollutant
Not available.

Snow Depth

Station Depth Elevation

Earthquake Activity

City Distance Mag. Time & Date
Minimum magnitude displayed is 2.5.

Coastal Water Temperatures

Place Temperature

Stations

Nearby Weather Stations

Station Location Temp. Windchill Dew Point Humidity Wind Precip. Elev Updated Type